sensor_id;sensor_type;location;lat;lon;timestamp;temperature;humidity
7163;DHT22;3623;47.098;15.446;2023-08-07T00:01:59;13.70;99.90
7163;DHT22;3623;47.098;15.446;2023-08-07T00:04:26;13.70;99.90
7163;DHT22;3623;47.098;15.446;2023-08-07T00:06:53;13.90;99.90
7163;DHT22;3623;47.098;15.446;2023-08-07T00:09:20;13.80;99.90
7163;DHT22;3623;47.098;15.446;2023-08-07T00:11:47;13.90;99.90
7163;DHT22;3623;47.098;15.446;2023-08-07T00:14:16;13.90;99.90
7163;DHT22;3623;47.098;15.446;2023-08-07T00:16:43;13.90;99.90
7163;DHT22;3623;47.098;15.446;2023-08-07T00:19:11;13.80;99.90
7163;DHT22;3623;47.098;15.446;2023-08-07T00:21:38;13.80;99.90
7163;DHT22;3623;47.098;15.446;2023-08-07T00:24:05;13.80;99.90
7163;DHT22;3623;47.098;15.446;2023-08-07T00:26:32;13.80;99.90
7163;DHT22;3623;47.098;15.446;2023-08-07T00:29:00;13.80;99.90
7163;DHT22;3623;47.098;15.446;2023-08-07T00:31:28;13.70;99.90
7163;DHT22;3623;47.098;15.446;2023-08-07T00:33:57;13.80;99.90
7163;DHT22;3623;47.098;15.446;2023-08-07T00:36:24;13.80;99.90
7163;DHT22;3623;47.098;15.446;2023-08-07T00:38:54;13.80;99.90
7163;DHT22;3623;47.098;15.446;2023-08-07T00:41:21;13.90;99.90
7163;DHT22;3623;47.098;15.446;2023-08-07T00:43:48;13.90;99.90
7163;DHT22;3623;47.098;15.446;2023-08-07T00:46:15;14.10;99.90
7163;DHT22;3623;47.098;15.446;2023-08-07T00:48:44;13.90;99.90
7163;DHT22;3623;47.098;15.446;2023-08-07T00:51:11;13.80;99.90
7163;DHT22;3623;47.098;15.446;2023-08-07T00:53:39;13.50;99.90
7163;DHT22;3623;47.098;15.446;2023-08-07T00:56:06;13.20;99.90
7163;DHT22;3623;47.098;15.446;2023-08-07T00:58:34;13.30;99.90
7163;DHT22;3623;47.098;15.446;2023-08-07T01:01:03;12.90;99.90
7163;DHT22;3623;47.098;15.446;2023-08-07T01:03:31;12.90;99.90
7163;DHT22;3623;47.098;15.446;2023-08-07T01:06:00;13.00;99.90
7163;DHT22;3623;47.098;15.446;2023-08-07T01:08:28;13.10;99.90
7163;DHT22;3623;47.098;15.446;2023-08-07T01:11:10;13.00;99.90
7163;DHT22;3623;47.098;15.446;2023-08-07T01:13:51;13.10;99.90
7163;DHT22;3623;47.098;15.446;2023-08-07T01:16:25;13.20;99.90
7163;DHT22;3623;47.098;15.446;2023-08-07T01:18:54;12.90;99.90
7163;DHT22;3623;47.098;15.446;2023-08-07T01:21:24;12.50;99.90
7163;DHT22;3623;47.098;15.446;2023-08-07T01:23:52;12.40;99.90
7163;DHT22;3623;47.098;15.446;2023-08-07T01:26:21;12.60;99.90
7163;DHT22;3623;47.098;15.446;2023-08-07T01:28:53;12.40;99.90
7163;DHT22;3623;47.098;15.446;2023-08-07T01:31:25;12.70;99.90
7163;DHT22;3623;47.098;15.446;2023-08-07T01:33:59;12.80;99.90
7163;DHT22;3623;47.098;15.446;2023-08-07T01:36:28;12.90;99.90
7163;DHT22;3623;47.098;15.446;2023-08-07T01:38:59;13.10;99.90
7163;DHT22;3623;47.098;15.446;2023-08-07T01:41:27;13.00;99.90
7163;DHT22;3623;47.098;15.446;2023-08-07T01:43:54;12.80;99.90
7163;DHT22;3623;47.098;15.446;2023-08-07T01:46:21;12.90;99.90
7163;DHT22;3623;47.098;15.446;2023-08-07T01:48:49;12.60;99.90
7163;DHT22;3623;47.098;15.446;2023-08-07T01:51:16;12.50;99.90
7163;DHT22;3623;47.098;15.446;2023-08-07T01:53:43;12.30;99.90
7163;DHT22;3623;47.098;15.446;2023-08-07T01:56:12;12.20;99.90
7163;DHT22;3623;47.098;15.446;2023-08-07T01:58:39;12.20;99.90
7163;DHT22;3623;47.098;15.446;2023-08-07T02:01:06;12.90;99.90
7163;DHT22;3623;47.098;15.446;2023-08-07T02:03:33;12.50;99.90
7163;DHT22;3623;47.098;15.446;2023-08-07T02:06:00;12.60;99.90
7163;DHT22;3623;47.098;15.446;2023-08-07T02:08:27;12.50;99.90
7163;DHT22;3623;47.098;15.446;2023-08-07T02:10:54;12.50;99.90
7163;DHT22;3623;47.098;15.446;2023-08-07T02:13:23;12.20;99.90
7163;DHT22;3623;47.098;15.446;2023-08-07T02:15:50;12.00;99.90
7163;DHT22;3623;47.098;15.446;2023-08-07T02:18:17;12.30;99.90
7163;DHT22;3623;47.098;15.446;2023-08-07T02:20:44;12.40;99.90
7163;DHT22;3623;47.098;15.446;2023-08-07T02:23:12;12.20;99.90
7163;DHT22;3623;47.098;15.446;2023-08-07T02:25:39;12.10;99.90
7163;DHT22;3623;47.098;15.446;2023-08-07T02:28:07;12.00;99.90
7163;DHT22;3623;47.098;15.446;2023-08-07T02:30:35;12.20;99.90
7163;DHT22;3623;47.098;15.446;2023-08-07T02:33:02;12.50;99.90
7163;DHT22;3623;47.098;15.446;2023-08-07T02:35:29;12.40;99.90
7163;DHT22;3623;47.098;15.446;2023-08-07T02:37:56;11.90;99.90
7163;DHT22;3623;47.098;15.446;2023-08-07T02:40:24;11.80;99.90
7163;DHT22;3623;47.098;15.446;2023-08-07T02:42:51;11.70;99.90
7163;DHT22;3623;47.098;15.446;2023-08-07T02:45:18;11.70;99.90
7163;DHT22;3623;47.098;15.446;2023-08-07T02:47:46;11.60;99.90
7163;DHT22;3623;47.098;15.446;2023-08-07T02:50:14;11.60;99.90
7163;DHT22;3623;47.098;15.446;2023-08-07T02:52:41;11.60;99.90
7163;DHT22;3623;47.098;15.446;2023-08-07T02:55:08;11.80;99.90
7163;DHT22;3623;47.098;15.446;2023-08-07T02:57:35;11.80;99.90
7163;DHT22;3623;47.098;15.446;2023-08-07T03:00:03;11.80;99.90
7163;DHT22;3623;47.098;15.446;2023-08-07T03:02:30;11.80;99.90
7163;DHT22;3623;47.098;15.446;2023-08-07T03:04:58;11.50;99.90
7163;DHT22;3623;47.098;15.446;2023-08-07T03:07:25;11.30;99.90
7163;DHT22;3623;47.098;15.446;2023-08-07T03:09:52;11.10;99.90
7163;DHT22;3623;47.098;15.446;2023-08-07T03:12:20;11.00;99.90
7163;DHT22;3623;47.098;15.446;2023-08-07T03:14:47;11.10;99.90
7163;DHT22;3623;47.098;15.446;2023-08-07T03:17:14;11.10;99.90
7163;DHT22;3623;47.098;15.446;2023-08-07T03:19:42;11.20;99.90
7163;DHT22;3623;47.098;15.446;2023-08-07T03:22:11;11.20;99.90
7163;DHT22;3623;47.098;15.446;2023-08-07T03:24:38;11.30;99.90
7163;DHT22;3623;47.098;15.446;2023-08-07T03:27:05;11.60;99.90
7163;DHT22;3623;47.098;15.446;2023-08-07T03:29:32;11.60;99.90
7163;DHT22;3623;47.098;15.446;2023-08-07T03:31:59;11.60;99.90
7163;DHT22;3623;47.098;15.446;2023-08-07T03:34:26;11.40;99.90
7163;DHT22;3623;47.098;15.446;2023-08-07T03:36:53;11.60;99.90
7163;DHT22;3623;47.098;15.446;2023-08-07T03:39:22;11.40;99.90
7163;DHT22;3623;47.098;15.446;2023-08-07T03:41:50;11.50;99.90
7163;DHT22;3623;47.098;15.446;2023-08-07T03:44:17;11.40;99.90
7163;DHT22;3623;47.098;15.446;2023-08-07T03:46:44;11.60;99.90
7163;DHT22;3623;47.098;15.446;2023-08-07T03:49:11;11.60;99.90
7163;DHT22;3623;47.098;15.446;2023-08-07T03:51:38;11.60;99.90
7163;DHT22;3623;47.098;15.446;2023-08-07T03:54:06;11.50;99.90
7163;DHT22;3623;47.098;15.446;2023-08-07T03:56:34;11.50;99.90
7163;DHT22;3623;47.098;15.446;2023-08-07T03:59:03;11.40;99.90
7163;DHT22;3623;47.098;15.446;2023-08-07T04:01:31;11.40;99.90
7163;DHT22;3623;47.098;15.446;2023-08-07T04:03:58;11.20;99.90
7163;DHT22;3623;47.098;15.446;2023-08-07T04:06:25;11.30;99.90
7163;DHT22;3623;47.098;15.446;2023-08-07T04:08:52;11.50;99.90
7163;DHT22;3623;47.098;15.446;2023-08-07T04:11:19;11.50;99.90
7163;DHT22;3623;47.098;15.446;2023-08-07T04:13:48;11.30;99.90
7163;DHT22;3623;47.098;15.446;2023-08-07T04:16:15;11.10;99.90
7163;DHT22;3623;47.098;15.446;2023-08-07T04:18:42;11.10;99.90
7163;DHT22;3623;47.098;15.446;2023-08-07T04:21:09;11.40;99.90
7163;DHT22;3623;47.098;15.446;2023-08-07T04:23:36;11.10;99.90
7163;DHT22;3623;47.098;15.446;2023-08-07T04:26:04;11.20;99.90
7163;DHT22;3623;47.098;15.446;2023-08-07T04:28:31;11.30;99.90
7163;DHT22;3623;47.098;15.446;2023-08-07T04:30:59;11.70;99.90
7163;DHT22;3623;47.098;15.446;2023-08-07T04:33:28;11.60;99.90
7163;DHT22;3623;47.098;15.446;2023-08-07T04:35:55;11.70;99.90
7163;DHT22;3623;47.098;15.446;2023-08-07T04:38:22;11.70;99.90
7163;DHT22;3623;47.098;15.446;2023-08-07T04:40:50;11.70;99.90
7163;DHT22;3623;47.098;15.446;2023-08-07T04:43:18;11.70;99.90
7163;DHT22;3623;47.098;15.446;2023-08-07T04:45:46;11.70;99.90
7163;DHT22;3623;47.098;15.446;2023-08-07T04:48:15;11.70;99.90
7163;DHT22;3623;47.098;15.446;2023-08-07T04:50:43;11.80;99.90
7163;DHT22;3623;47.098;15.446;2023-08-07T04:53:10;11.80;99.90
7163;DHT22;3623;47.098;15.446;2023-08-07T04:55:38;11.80;99.90
7163;DHT22;3623;47.098;15.446;2023-08-07T04:58:05;11.90;99.90
7163;DHT22;3623;47.098;15.446;2023-08-07T05:00:33;11.90;99.90
7163;DHT22;3623;47.098;15.446;2023-08-07T05:03:00;12.00;99.90
7163;DHT22;3623;47.098;15.446;2023-08-07T05:05:29;12.10;99.90
7163;DHT22;3623;47.098;15.446;2023-08-07T05:07:58;12.30;99.90
7163;DHT22;3623;47.098;15.446;2023-08-07T05:10:25;12.50;99.90
7163;DHT22;3623;47.098;15.446;2023-08-07T05:12:52;12.30;99.90
7163;DHT22;3623;47.098;15.446;2023-08-07T05:15:21;12.60;99.90
7163;DHT22;3623;47.098;15.446;2023-08-07T05:17:50;12.40;99.90
7163;DHT22;3623;47.098;15.446;2023-08-07T05:20:18;12.40;99.90
7163;DHT22;3623;47.098;15.446;2023-08-07T05:22:46;12.50;99.90
7163;DHT22;3623;47.098;15.446;2023-08-07T05:25:14;13.40;99.90
7163;DHT22;3623;47.098;15.446;2023-08-07T05:27:41;11.70;99.90
7163;DHT22;3623;47.098;15.446;2023-08-07T05:30:10;12.70;99.90
7163;DHT22;3623;47.098;15.446;2023-08-07T05:32:37;12.80;99.90
7163;DHT22;3623;47.098;15.446;2023-08-07T05:35:05;12.90;99.90
7163;DHT22;3623;47.098;15.446;2023-08-07T05:37:32;12.20;99.90
7163;DHT22;3623;47.098;15.446;2023-08-07T05:40:01;13.30;99.90
7163;DHT22;3623;47.098;15.446;2023-08-07T05:42:29;13.20;99.90
7163;DHT22;3623;47.098;15.446;2023-08-07T05:44:56;13.30;99.90
7163;DHT22;3623;47.098;15.446;2023-08-07T05:47:23;13.40;99.90
7163;DHT22;3623;47.098;15.446;2023-08-07T05:49:50;13.40;99.90
7163;DHT22;3623;47.098;15.446;2023-08-07T05:52:17;13.40;99.90
7163;DHT22;3623;47.098;15.446;2023-08-07T05:54:45;13.40;99.90
7163;DHT22;3623;47.098;15.446;2023-08-07T05:57:13;13.60;99.90
7163;DHT22;3623;47.098;15.446;2023-08-07T05:59:40;13.30;99.90
7163;DHT22;3623;47.098;15.446;2023-08-07T06:02:07;13.50;99.90
7163;DHT22;3623;47.098;15.446;2023-08-07T06:04:36;13.60;99.90
7163;DHT22;3623;47.098;15.446;2023-08-07T06:07:04;13.50;99.90
7163;DHT22;3623;47.098;15.446;2023-08-07T06:09:31;13.60;99.90
7163;DHT22;3623;47.098;15.446;2023-08-07T06:11:59;13.50;99.90
7163;DHT22;3623;47.098;15.446;2023-08-07T06:14:27;13.40;99.90
7163;DHT22;3623;47.098;15.446;2023-08-07T06:16:54;13.60;99.90
7163;DHT22;3623;47.098;15.446;2023-08-07T06:19:23;13.60;99.90
7163;DHT22;3623;47.098;15.446;2023-08-07T06:21:52;13.60;99.90
7163;DHT22;3623;47.098;15.446;2023-08-07T06:24:20;13.70;99.90
7163;DHT22;3623;47.098;15.446;2023-08-07T06:26:47;13.70;99.90
7163;DHT22;3623;47.098;15.446;2023-08-07T06:29:14;13.70;99.90
7163;DHT22;3623;47.098;15.446;2023-08-07T06:31:43;13.70;99.90
7163;DHT22;3623;47.098;15.446;2023-08-07T06:34:10;13.80;99.90
7163;DHT22;3623;47.098;15.446;2023-08-07T06:36:36;14.00;99.90
7163;DHT22;3623;47.098;15.446;2023-08-07T06:39:03;14.00;99.90
7163;DHT22;3623;47.098;15.446;2023-08-07T06:41:30;14.20;99.90
7163;DHT22;3623;47.098;15.446;2023-08-07T06:43:57;14.30;99.90
7163;DHT22;3623;47.098;15.446;2023-08-07T06:46:24;14.40;99.90
7163;DHT22;3623;47.098;15.446;2023-08-07T06:48:54;14.50;99.90
7163;DHT22;3623;47.098;15.446;2023-08-07T06:51:21;14.60;99.90
7163;DHT22;3623;47.098;15.446;2023-08-07T06:53:49;14.60;99.90
7163;DHT22;3623;47.098;15.446;2023-08-07T06:56:16;14.80;99.90
7163;DHT22;3623;47.098;15.446;2023-08-07T06:58:43;14.80;99.90
7163;DHT22;3623;47.098;15.446;2023-08-07T07:01:10;15.00;99.90
7163;DHT22;3623;47.098;15.446;2023-08-07T07:03:37;15.00;99.90
7163;DHT22;3623;47.098;15.446;2023-08-07T07:06:06;15.00;99.90
7163;DHT22;3623;47.098;15.446;2023-08-07T07:08:33;15.10;99.90
7163;DHT22;3623;47.098;15.446;2023-08-07T07:11:00;15.10;99.90
7163;DHT22;3623;47.098;15.446;2023-08-07T07:13:27;15.10;99.90
7163;DHT22;3623;47.098;15.446;2023-08-07T07:15:55;15.20;99.90
7163;DHT22;3623;47.098;15.446;2023-08-07T07:18:22;15.30;99.90
7163;DHT22;3623;47.098;15.446;2023-08-07T07:20:56;15.50;99.90
7163;DHT22;3623;47.098;15.446;2023-08-07T07:23:26;16.30;99.90
7163;DHT22;3623;47.098;15.446;2023-08-07T07:25:53;15.90;99.90
7163;DHT22;3623;47.098;15.446;2023-08-07T07:28:20;15.90;99.90
7163;DHT22;3623;47.098;15.446;2023-08-07T07:30:48;16.20;99.90
7163;DHT22;3623;47.098;15.446;2023-08-07T07:33:16;16.40;99.90
7163;DHT22;3623;47.098;15.446;2023-08-07T07:35:43;16.60;99.90
7163;DHT22;3623;47.098;15.446;2023-08-07T07:38:10;16.60;99.90
7163;DHT22;3623;47.098;15.446;2023-08-07T07:40:39;16.50;99.90
7163;DHT22;3623;47.098;15.446;2023-08-07T07:43:06;17.00;99.90
7163;DHT22;3623;47.098;15.446;2023-08-07T07:45:33;16.90;99.90
7163;DHT22;3623;47.098;15.446;2023-08-07T07:48:01;16.70;99.90
7163;DHT22;3623;47.098;15.446;2023-08-07T07:50:29;16.80;99.90
7163;DHT22;3623;47.098;15.446;2023-08-07T07:52:56;16.70;99.90
7163;DHT22;3623;47.098;15.446;2023-08-07T07:55:24;16.80;99.90
7163;DHT22;3623;47.098;15.446;2023-08-07T07:57:53;16.90;99.90
7163;DHT22;3623;47.098;15.446;2023-08-07T08:00:21;16.80;99.90
7163;DHT22;3623;47.098;15.446;2023-08-07T08:02:51;17.10;99.90
7163;DHT22;3623;47.098;15.446;2023-08-07T08:05:19;16.80;99.90
7163;DHT22;3623;47.098;15.446;2023-08-07T08:07:46;17.00;99.90
7163;DHT22;3623;47.098;15.446;2023-08-07T08:10:13;17.20;99.90
7163;DHT22;3623;47.098;15.446;2023-08-07T08:12:40;17.20;99.90
7163;DHT22;3623;47.098;15.446;2023-08-07T08:15:09;17.40;99.90
7163;DHT22;3623;47.098;15.446;2023-08-07T08:17:36;17.30;99.90
7163;DHT22;3623;47.098;15.446;2023-08-07T08:20:06;17.40;99.90
7163;DHT22;3623;47.098;15.446;2023-08-07T08:22:33;17.20;99.90
7163;DHT22;3623;47.098;15.446;2023-08-07T08:25:00;17.10;99.90
7163;DHT22;3623;47.098;15.446;2023-08-07T08:27:27;17.10;99.90
7163;DHT22;3623;47.098;15.446;2023-08-07T08:29:55;17.40;99.90
7163;DHT22;3623;47.098;15.446;2023-08-07T08:32:23;17.70;99.90
7163;DHT22;3623;47.098;15.446;2023-08-07T08:34:50;18.20;99.90
7163;DHT22;3623;47.098;15.446;2023-08-07T08:37:17;18.10;99.90
7163;DHT22;3623;47.098;15.446;2023-08-07T08:39:44;17.90;99.90
7163;DHT22;3623;47.098;15.446;2023-08-07T08:42:12;18.10;99.90
7163;DHT22;3623;47.098;15.446;2023-08-07T08:44:40;17.90;99.90
7163;DHT22;3623;47.098;15.446;2023-08-07T08:47:09;18.10;99.90
7163;DHT22;3623;47.098;15.446;2023-08-07T08:49:45;18.10;99.90
7163;DHT22;3623;47.098;15.446;2023-08-07T08:52:13;18.20;99.90
7163;DHT22;3623;47.098;15.446;2023-08-07T08:54:41;18.20;99.90
7163;DHT22;3623;47.098;15.446;2023-08-07T08:57:09;18.30;99.90
7163;DHT22;3623;47.098;15.446;2023-08-07T08:59:38;18.40;99.90
7163;DHT22;3623;47.098;15.446;2023-08-07T09:02:05;18.50;99.90
7163;DHT22;3623;47.098;15.446;2023-08-07T09:04:33;18.80;99.90
7163;DHT22;3623;47.098;15.446;2023-08-07T09:07:02;18.80;99.90
7163;DHT22;3623;47.098;15.446;2023-08-07T09:09:29;18.80;99.90
7163;DHT22;3623;47.098;15.446;2023-08-07T09:11:58;18.80;99.90
7163;DHT22;3623;47.098;15.446;2023-08-07T09:14:29;18.80;99.90
7163;DHT22;3623;47.098;15.446;2023-08-07T09:16:59;19.00;99.90
7163;DHT22;3623;47.098;15.446;2023-08-07T09:19:27;19.10;99.90
7163;DHT22;3623;47.098;15.446;2023-08-07T09:21:55;19.60;99.90
7163;DHT22;3623;47.098;15.446;2023-08-07T09:24:23;19.70;99.90
7163;DHT22;3623;47.098;15.446;2023-08-07T09:26:51;19.70;99.90
7163;DHT22;3623;47.098;15.446;2023-08-07T09:29:19;19.90;99.90
7163;DHT22;3623;47.098;15.446;2023-08-07T09:31:47;19.70;99.90
7163;DHT22;3623;47.098;15.446;2023-08-07T09:34:14;19.70;99.90
7163;DHT22;3623;47.098;15.446;2023-08-07T09:36:43;19.70;99.90
7163;DHT22;3623;47.098;15.446;2023-08-07T09:39:11;19.80;99.90
7163;DHT22;3623;47.098;15.446;2023-08-07T09:41:39;19.70;99.90
7163;DHT22;3623;47.098;15.446;2023-08-07T09:44:07;19.90;99.90
7163;DHT22;3623;47.098;15.446;2023-08-07T09:46:41;20.30;99.90
7163;DHT22;3623;47.098;15.446;2023-08-07T09:49:09;20.30;99.90
7163;DHT22;3623;47.098;15.446;2023-08-07T09:51:42;20.30;99.90
7163;DHT22;3623;47.098;15.446;2023-08-07T09:54:10;20.30;99.90
7163;DHT22;3623;47.098;15.446;2023-08-07T09:56:40;21.70;99.90
7163;DHT22;3623;47.098;15.446;2023-08-07T09:59:16;20.00;99.90
7163;DHT22;3623;47.098;15.446;2023-08-07T10:01:44;20.00;99.90
7163;DHT22;3623;47.098;15.446;2023-08-07T10:04:23;19.70;99.90
7163;DHT22;3623;47.098;15.446;2023-08-07T10:22:03;20.90;99.90
7163;DHT22;3623;47.098;15.446;2023-08-07T10:59:07;20.40;98.20
7163;DHT22;3623;47.098;15.446;2023-08-07T11:06:51;21.40;99.90
7163;DHT22;3623;47.098;15.446;2023-08-07T13:06:58;19.30;97.70
7163;DHT22;3623;47.098;15.446;2023-08-07T13:09:25;19.60;99.90
7163;DHT22;3623;47.098;15.446;2023-08-07T13:11:52;19.70;99.90
7163;DHT22;3623;47.098;15.446;2023-08-07T13:14:19;19.80;99.30
7163;DHT22;3623;47.098;15.446;2023-08-07T13:16:47;20.00;99.60
7163;DHT22;3623;47.098;15.446;2023-08-07T13:19:15;20.20;98.90
7163;DHT22;3623;47.098;15.446;2023-08-07T13:21:42;19.90;98.60
7163;DHT22;3623;47.098;15.446;2023-08-07T13:24:11;20.00;98.70
7163;DHT22;3623;47.098;15.446;2023-08-07T13:26:38;20.00;98.90
7163;DHT22;3623;47.098;15.446;2023-08-07T13:29:10;19.70;98.30
7163;DHT22;3623;47.098;15.446;2023-08-07T13:31:37;19.40;98.10
7163;DHT22;3623;47.098;15.446;2023-08-07T13:34:07;19.50;97.50
7163;DHT22;3623;47.098;15.446;2023-08-07T13:36:37;19.60;99.60
7163;DHT22;3623;47.098;15.446;2023-08-07T13:39:04;19.60;99.30
7163;DHT22;3623;47.098;15.446;2023-08-07T13:41:33;19.60;98.30
7163;DHT22;3623;47.098;15.446;2023-08-07T13:44:00;19.50;99.20
7163;DHT22;3623;47.098;15.446;2023-08-07T13:46:27;19.50;98.70
7163;DHT22;3623;47.098;15.446;2023-08-07T13:48:55;19.60;98.40
7163;DHT22;3623;47.098;15.446;2023-08-07T13:51:23;19.60;98.60
7163;DHT22;3623;47.098;15.446;2023-08-07T13:53:50;19.90;98.70
7163;DHT22;3623;47.098;15.446;2023-08-07T13:56:18;19.90;98.10
7163;DHT22;3623;47.098;15.446;2023-08-07T13:58:47;19.90;97.80
7163;DHT22;3623;47.098;15.446;2023-08-07T14:01:14;19.90;98.50
7163;DHT22;3623;47.098;15.446;2023-08-07T14:03:41;19.90;97.80
7163;DHT22;3623;47.098;15.446;2023-08-07T14:06:08;20.10;99.20
7163;DHT22;3623;47.098;15.446;2023-08-07T14:08:35;20.10;98.80
7163;DHT22;3623;47.098;15.446;2023-08-07T14:11:02;20.30;99.40
7163;DHT22;3623;47.098;15.446;2023-08-07T14:13:30;20.50;98.60
7163;DHT22;3623;47.098;15.446;2023-08-07T14:15:59;20.60;98.80
7163;DHT22;3623;47.098;15.446;2023-08-07T14:18:26;20.70;99.90
7163;DHT22;3623;47.098;15.446;2023-08-07T14:20:53;20.70;99.10
7163;DHT22;3623;47.098;15.446;2023-08-07T14:23:20;20.60;99.40
7163;DHT22;3623;47.098;15.446;2023-08-07T14:25:48;20.30;98.20
7163;DHT22;3623;47.098;15.446;2023-08-07T14:28:16;20.30;98.70
7163;DHT22;3623;47.098;15.446;2023-08-07T14:30:43;20.40;98.80
7163;DHT22;3623;47.098;15.446;2023-08-07T14:33:12;20.50;99.10
7163;DHT22;3623;47.098;15.446;2023-08-07T14:35:39;20.60;98.10
7163;DHT22;3623;47.098;15.446;2023-08-07T14:38:06;20.50;98.30
7163;DHT22;3623;47.098;15.446;2023-08-07T14:40:33;20.70;99.40
7163;DHT22;3623;47.098;15.446;2023-08-07T14:43:03;21.10;99.10
7163;DHT22;3623;47.098;15.446;2023-08-07T14:45:30;21.20;98.70
7163;DHT22;3623;47.098;15.446;2023-08-07T14:47:57;21.30;99.20
7163;DHT22;3623;47.098;15.446;2023-08-07T14:50:26;21.40;98.60
7163;DHT22;3623;47.098;15.446;2023-08-07T14:52:54;21.60;98.90
7163;DHT22;3623;47.098;15.446;2023-08-07T14:55:22;21.70;98.60
7163;DHT22;3623;47.098;15.446;2023-08-07T14:57:49;21.70;97.80
7163;DHT22;3623;47.098;15.446;2023-08-07T15:00:17;22.00;97.40
7163;DHT22;3623;47.098;15.446;2023-08-07T15:02:45;22.10;97.20
7163;DHT22;3623;47.098;15.446;2023-08-07T15:05:14;22.20;97.60
7163;DHT22;3623;47.098;15.446;2023-08-07T15:07:43;22.10;97.90
7163;DHT22;3623;47.098;15.446;2023-08-07T15:10:10;22.80;97.70
7163;DHT22;3623;47.098;15.446;2023-08-07T15:12:37;22.00;96.10
7163;DHT22;3623;47.098;15.446;2023-08-07T15:15:05;21.90;97.80
7163;DHT22;3623;47.098;15.446;2023-08-07T15:17:32;21.30;97.10
7163;DHT22;3623;47.098;15.446;2023-08-07T15:19:59;21.20;97.80
7163;DHT22;3623;47.098;15.446;2023-08-07T15:22:26;21.30;99.00
7163;DHT22;3623;47.098;15.446;2023-08-07T15:24:55;21.00;97.30
7163;DHT22;3623;47.098;15.446;2023-08-07T15:27:22;21.00;97.30
7163;DHT22;3623;47.098;15.446;2023-08-07T15:29:49;21.10;98.20
7163;DHT22;3623;47.098;15.446;2023-08-07T15:32:16;20.70;97.40
7163;DHT22;3623;47.098;15.446;2023-08-07T15:34:45;20.50;97.70
7163;DHT22;3623;47.098;15.446;2023-08-07T15:37:12;20.20;97.50
7163;DHT22;3623;47.098;15.446;2023-08-07T15:39:39;20.20;98.30
7163;DHT22;3623;47.098;15.446;2023-08-07T15:42:08;19.90;97.70
7163;DHT22;3623;47.098;15.446;2023-08-07T15:44:35;19.70;97.90
7163;DHT22;3623;47.098;15.446;2023-08-07T15:47:04;19.40;99.30
7163;DHT22;3623;47.098;15.446;2023-08-07T15:49:31;19.30;98.90
7163;DHT22;3623;47.098;15.446;2023-08-07T15:51:59;19.20;99.50
7163;DHT22;3623;47.098;15.446;2023-08-07T15:54:26;19.00;99.50
7163;DHT22;3623;47.098;15.446;2023-08-07T15:56:53;18.90;99.70
7163;DHT22;3623;47.098;15.446;2023-08-07T15:59:22;18.70;99.30
7163;DHT22;3623;47.098;15.446;2023-08-07T16:01:52;18.70;98.80
7163;DHT22;3623;47.098;15.446;2023-08-07T16:04:19;18.70;99.90
7163;DHT22;3623;47.098;15.446;2023-08-07T16:06:46;18.70;99.60
7163;DHT22;3623;47.098;15.446;2023-08-07T16:09:14;18.80;99.90
7163;DHT22;3623;47.098;15.446;2023-08-07T16:11:41;18.80;99.80
7163;DHT22;3623;47.098;15.446;2023-08-07T16:14:08;18.80;99.80
7163;DHT22;3623;47.098;15.446;2023-08-07T16:16:36;18.70;99.90
7163;DHT22;3623;47.098;15.446;2023-08-07T16:19:04;18.70;99.60
7163;DHT22;3623;47.098;15.446;2023-08-07T16:21:31;18.70;99.90
7163;DHT22;3623;47.098;15.446;2023-08-07T16:23:58;18.70;99.90
7163;DHT22;3623;47.098;15.446;2023-08-07T16:26:25;18.60;99.90
7163;DHT22;3623;47.098;15.446;2023-08-07T16:28:53;18.40;99.90
7163;DHT22;3623;47.098;15.446;2023-08-07T16:31:20;18.40;99.90
7163;DHT22;3623;47.098;15.446;2023-08-07T16:33:49;18.30;99.90
7163;DHT22;3623;47.098;15.446;2023-08-07T16:36:16;18.10;99.90
7163;DHT22;3623;47.098;15.446;2023-08-07T16:38:45;18.10;99.90
7163;DHT22;3623;47.098;15.446;2023-08-07T16:41:14;17.90;99.90
7163;DHT22;3623;47.098;15.446;2023-08-07T16:43:41;17.80;99.90
7163;DHT22;3623;47.098;15.446;2023-08-07T16:46:08;17.80;99.90
7163;DHT22;3623;47.098;15.446;2023-08-07T16:48:35;17.70;99.90
7163;DHT22;3623;47.098;15.446;2023-08-07T16:51:04;17.70;99.90
7163;DHT22;3623;47.098;15.446;2023-08-07T16:53:32;17.60;99.90
7163;DHT22;3623;47.098;15.446;2023-08-07T16:55:59;17.40;99.90
7163;DHT22;3623;47.098;15.446;2023-08-07T16:58:26;17.30;99.90
7163;DHT22;3623;47.098;15.446;2023-08-07T17:00:53;17.30;99.90
7163;DHT22;3623;47.098;15.446;2023-08-07T17:03:20;17.10;99.90
7163;DHT22;3623;47.098;15.446;2023-08-07T17:05:47;17.00;99.90
7163;DHT22;3623;47.098;15.446;2023-08-07T17:08:16;16.90;99.90
7163;DHT22;3623;47.098;15.446;2023-08-07T17:10:43;16.80;99.90
7163;DHT22;3623;47.098;15.446;2023-08-07T17:13:10;16.80;99.90
7163;DHT22;3623;47.098;15.446;2023-08-07T17:15:37;16.70;99.90
7163;DHT22;3623;47.098;15.446;2023-08-07T17:18:04;16.60;99.90
7163;DHT22;3623;47.098;15.446;2023-08-07T17:20:31;16.50;99.90
7163;DHT22;3623;47.098;15.446;2023-08-07T17:22:59;16.40;99.90
7163;DHT22;3623;47.098;15.446;2023-08-07T17:25:27;16.30;99.90
7163;DHT22;3623;47.098;15.446;2023-08-07T17:27:54;16.30;99.90
7163;DHT22;3623;47.098;15.446;2023-08-07T17:30:22;16.50;99.90
7163;DHT22;3623;47.098;15.446;2023-08-07T17:32:49;16.30;99.90
7163;DHT22;3623;47.098;15.446;2023-08-07T17:35:17;16.30;99.90
7163;DHT22;3623;47.098;15.446;2023-08-07T17:37:44;16.20;99.90
7163;DHT22;3623;47.098;15.446;2023-08-07T17:40:12;16.30;99.90
7163;DHT22;3623;47.098;15.446;2023-08-07T17:42:41;16.20;99.90
7163;DHT22;3623;47.098;15.446;2023-08-07T17:45:08;16.30;99.90
7163;DHT22;3623;47.098;15.446;2023-08-07T17:47:36;16.30;99.90
7163;DHT22;3623;47.098;15.446;2023-08-07T17:50:04;16.30;99.90
7163;DHT22;3623;47.098;15.446;2023-08-07T17:52:35;16.30;99.90
7163;DHT22;3623;47.098;15.446;2023-08-07T17:55:03;16.40;99.90
7163;DHT22;3623;47.098;15.446;2023-08-07T17:57:31;16.40;99.90
7163;DHT22;3623;47.098;15.446;2023-08-07T18:00:00;16.30;99.90
7163;DHT22;3623;47.098;15.446;2023-08-07T18:02:29;16.30;99.90
7163;DHT22;3623;47.098;15.446;2023-08-07T18:04:56;16.20;99.90
7163;DHT22;3623;47.098;15.446;2023-08-07T18:07:23;16.20;99.90
7163;DHT22;3623;47.098;15.446;2023-08-07T18:09:50;16.10;99.90
7163;DHT22;3623;47.098;15.446;2023-08-07T18:12:17;16.10;99.90
7163;DHT22;3623;47.098;15.446;2023-08-07T18:14:44;16.00;99.90
7163;DHT22;3623;47.098;15.446;2023-08-07T18:17:13;15.90;99.90
7163;DHT22;3623;47.098;15.446;2023-08-07T18:19:40;15.90;99.90
7163;DHT22;3623;47.098;15.446;2023-08-07T18:22:07;15.90;99.90
7163;DHT22;3623;47.098;15.446;2023-08-07T18:24:34;15.80;99.90
7163;DHT22;3623;47.098;15.446;2023-08-07T18:27:02;15.70;99.90
7163;DHT22;3623;47.098;15.446;2023-08-07T18:29:29;15.70;99.90
7163;DHT22;3623;47.098;15.446;2023-08-07T18:31:56;15.70;99.90
7163;DHT22;3623;47.098;15.446;2023-08-07T18:34:24;15.70;99.90
7163;DHT22;3623;47.098;15.446;2023-08-07T18:36:52;15.70;99.90
7163;DHT22;3623;47.098;15.446;2023-08-07T18:39:19;15.60;99.90
7163;DHT22;3623;47.098;15.446;2023-08-07T18:41:46;15.60;99.90